Time;durP1;ratioP1;P1;durP2;ratioP2;P2;SDS_P1;SDS_P2;PMS_P1;PMS_P2;Temp;Humidity;BMP_temperature;BMP_pressure;BME280_temperature;BME280_humidity;BME280_pressure;Samples;Min_cycle;Max_cycle;Signal;HPM_P1;HPM_P2
2023/05/23 00:01:32;;;;;;;11.23;7.45;;;16.40;99.90;;;;;;5080797;28;20089;-42
2023/05/23 00:03:58;;;;;;;10.13;7.32;;;16.40;99.90;;;;;;5080963;28;20487;-42
2023/05/23 00:06:23;;;;;;;8.82;6.53;;;16.40;99.90;;;;;;5081308;28;20043;-42
2023/05/23 00:08:49;;;;;;;10.52;7.28;;;16.30;99.90;;;;;;5081883;28;20043;-42
2023/05/23 00:11:15;;;;;;;9.95;7.57;;;16.30;99.90;;;;;;5082457;28;20028;-42
2023/05/23 00:13:41;;;;;;;8.80;6.90;;;16.30;99.90;;;;;;5081453;28;20051;-43
2023/05/23 00:16:08;;;;;;;10.93;7.28;;;16.30;99.90;;;;;;5082960;28;20521;-42
2023/05/23 00:18:35;;;;;;;9.02;6.50;;;16.20;99.90;;;;;;5081808;28;20052;-41
2023/05/23 00:21:01;;;;;;;9.20;7.47;;;16.20;99.90;;;;;;5081258;28;20024;-42
2023/05/23 00:23:28;;;;;;;8.73;6.57;;;16.20;99.90;;;;;;5081930;28;20071;-43
2023/05/23 00:25:54;;;;;;;9.30;6.88;;;16.20;99.90;;;;;;5080613;28;20035;-42
2023/05/23 00:28:21;;;;;;;14.18;9.00;;;16.20;99.90;;;;;;5082093;28;20044;-43
2023/05/23 00:30:50;;;;;;;10.90;7.25;;;16.20;99.90;;;;;;5081361;28;20058;-42
2023/05/23 00:33:16;;;;;;;9.35;6.55;;;16.10;99.90;;;;;;5081514;28;20032;-42
2023/05/23 00:35:42;;;;;;;10.40;7.30;;;16.10;99.90;;;;;;5081547;28;20145;-43
2023/05/23 00:38:10;;;;;;;12.23;8.23;;;16.10;99.90;;;;;;5082053;28;20046;-42
2023/05/23 00:40:35;;;;;;;11.27;6.60;;;16.00;99.90;;;;;;5080031;28;20053;-43
2023/05/23 00:43:01;;;;;;;9.82;7.40;;;16.00;99.90;;;;;;5081091;28;20139;-42
2023/05/23 00:45:27;;;;;;;12.52;9.45;;;15.90;99.90;;;;;;5081003;28;20407;-42
2023/05/23 00:47:53;;;;;;;12.38;8.60;;;15.90;99.90;;;;;;5080718;28;20032;-42
2023/05/23 00:50:19;;;;;;;15.90;9.50;;;15.80;99.90;;;;;;5081190;28;20035;-43
2023/05/23 00:52:47;;;;;;;13.50;7.35;;;15.70;99.90;;;;;;5080933;28;20020;-44
2023/05/23 00:55:13;;;;;;;14.73;10.07;;;15.60;99.90;;;;;;5081369;28;20065;-40
2023/05/23 00:57:43;;;;;;;13.43;8.70;;;15.60;99.90;;;;;;5081181;28;20040;-43
2023/05/23 01:00:12;;;;;;;15.68;10.13;;;15.50;99.90;;;;;;5080933;28;20027;-42
2023/05/23 01:02:43;;;;;;;13.90;10.15;;;15.50;99.90;;;;;;5077265;28;20139;-42
2023/05/23 01:05:16;;;;;;;14.80;8.95;;;15.50;99.90;;;;;;5083778;28;20156;-42
2023/05/23 01:07:45;;;;;;;;;;;15.40;99.90;;;;;;5084096;28;20149;-42
2023/05/23 01:10:13;;;;;;;17.15;8.80;;;15.40;99.90;;;;;;5084678;28;19930;-41
2023/05/23 01:12:57;;;;;;;12.20;8.80;;;15.30;99.90;;;;;;5083529;28;20506;-42
2023/05/23 01:15:45;;;;;;;11.90;8.43;;;15.20;99.90;;;;;;5083658;28;20032;-42
2023/05/23 01:18:23;;;;;;;13.73;8.82;;;15.20;99.90;;;;;;5039721;28;20040;-42
2023/05/23 01:20:53;;;;;;;13.88;7.78;;;15.20;99.90;;;;;;5084549;28;20036;-49
2023/05/23 01:23:51;;;;;;;8.98;7.25;;;15.20;99.90;;;;;;5080921;28;20034;-43
2023/05/23 01:26:31;;;;;;;8.40;6.25;;;15.20;99.90;;;;;;5068617;28;20060;-41
2023/05/23 01:29:23;;;;;;;9.60;6.70;;;15.20;99.90;;;;;;5073459;28;20083;-43
2023/05/23 01:31:53;;;;;;;13.98;8.52;;;15.30;99.90;;;;;;5085225;28;20042;-43
2023/05/23 01:34:20;;;;;;;10.38;7.22;;;15.30;99.90;;;;;;5084063;28;20086;-44
2023/05/23 01:36:49;;;;;;;10.55;7.82;;;15.20;99.90;;;;;;5083066;28;20367;-43
2023/05/23 01:39:15;;;;;;;11.50;6.75;;;15.20;99.90;;;;;;5084922;28;20602;-41
2023/05/23 01:41:41;;;;;;;11.55;6.88;;;15.20;99.90;;;;;;5085090;28;20035;-42
2023/05/23 01:44:07;;;;;;;8.70;6.50;;;15.30;99.90;;;;;;5084473;28;20020;-42
2023/05/23 01:46:34;;;;;;;8.73;6.32;;;15.30;99.90;;;;;;5084548;28;20066;-42
2023/05/23 01:49:02;;;;;;;7.78;5.70;;;15.30;99.90;;;;;;5083772;28;20075;-43
2023/05/23 01:51:29;;;;;;;12.20;7.72;;;15.30;99.90;;;;;;5084442;28;20060;-42
2023/05/23 01:53:56;;;;;;;10.52;7.07;;;15.30;99.90;;;;;;5086449;28;20032;-42
2023/05/23 01:56:22;;;;;;;13.20;7.25;;;15.30;99.90;;;;;;5104529;28;20048;-42
2023/05/23 01:58:47;;;;;;;13.18;7.97;;;15.30;99.90;;;;;;5088968;28;20021;-42
2023/05/23 02:01:14;;;;;;;11.70;7.72;;;15.20;99.90;;;;;;5084849;28;20032;-42
2023/05/23 02:03:42;;;;;;;11.27;7.10;;;15.10;99.90;;;;;;5083478;28;20031;-42
2023/05/23 02:06:08;;;;;;;7.95;6.65;;;15.10;99.90;;;;;;5084974;28;20028;-42
2023/05/23 02:08:33;;;;;;;10.43;7.45;;;15.10;99.90;;;;;;5084048;28;20647;-42
2023/05/23 02:10:59;;;;;;;11.15;6.88;;;15.10;99.90;;;;;;5083775;28;20581;-42
2023/05/23 02:13:24;;;;;;;10.52;6.80;;;15.00;99.90;;;;;;5083981;28;20123;-42
2023/05/23 02:15:50;;;;;;;11.50;6.93;;;15.00;99.90;;;;;;5082041;28;20127;-42
2023/05/23 02:18:16;;;;;;;8.80;6.97;;;15.10;99.90;;;;;;5082834;28;20036;-42
2023/05/23 02:20:42;;;;;;;12.52;8.15;;;15.00;99.90;;;;;;5082871;28;20349;-43
2023/05/23 02:23:08;;;;;;;12.90;7.28;;;15.00;99.90;;;;;;5082983;28;20016;-42
2023/05/23 02:25:34;;;;;;;10.88;7.40;;;15.00;99.90;;;;;;5082395;28;20162;-43
2023/05/23 02:28:00;;;;;;;9.00;6.40;;;15.00;99.90;;;;;;5084111;28;20506;-42
2023/05/23 02:30:25;;;;;;;10.93;8.48;;;15.00;99.90;;;;;;5083345;28;20027;-42
2023/05/23 02:32:52;;;;;;;10.13;7.30;;;15.10;99.90;;;;;;5083852;28;20039;-42
2023/05/23 02:35:17;;;;;;;10.73;8.05;;;15.00;99.90;;;;;;5083891;28;20031;-42
2023/05/23 02:37:43;;;;;;;11.02;7.70;;;15.00;99.90;;;;;;5083896;28;20028;-42
2023/05/23 02:40:09;;;;;;;12.68;8.27;;;15.00;99.90;;;;;;5083009;28;20072;-43
2023/05/23 02:42:34;;;;;;;11.93;8.02;;;15.00;99.90;;;;;;5082593;28;20036;-43
2023/05/23 02:45:00;;;;;;;11.18;6.93;;;15.00;99.90;;;;;;5083105;28;20043;-42
2023/05/23 02:47:26;;;;;;;9.38;6.57;;;15.00;99.90;;;;;;5082237;28;20055;-43
2023/05/23 02:49:51;;;;;;;9.82;6.65;;;15.00;99.90;;;;;;5083183;28;20026;-42
2023/05/23 02:52:17;;;;;;;13.60;7.97;;;15.00;99.90;;;;;;5082718;28;20115;-42
2023/05/23 02:54:42;;;;;;;12.73;7.57;;;15.10;99.90;;;;;;5083368;28;20016;-41
2023/05/23 02:57:08;;;;;;;9.98;6.97;;;15.10;99.90;;;;;;5083773;28;20063;-42
2023/05/23 02:59:33;;;;;;;18.40;9.27;;;15.10;99.90;;;;;;5081796;28;20117;-42
2023/05/23 03:01:59;;;;;;;12.02;7.60;;;15.10;99.90;;;;;;5083646;28;20104;-42
2023/05/23 03:04:24;;;;;;;10.52;7.03;;;15.10;99.90;;;;;;5082854;28;20558;-42
2023/05/23 03:06:53;;;;;;;11.55;8.13;;;15.10;99.90;;;;;;5082673;28;20492;-42
2023/05/23 03:09:19;;;;;;;13.57;7.40;;;15.10;99.90;;;;;;5083497;28;20483;-42
2023/05/23 03:11:44;;;;;;;15.30;8.35;;;15.10;99.90;;;;;;5083266;28;20026;-42
2023/05/23 03:14:10;;;;;;;8.95;6.97;;;15.10;99.90;;;;;;5082937;28;20066;-42
2023/05/23 03:16:35;;;;;;;12.82;7.65;;;15.00;99.90;;;;;;5082663;28;20035;-43
2023/05/23 03:19:01;;;;;;;10.68;6.43;;;15.00;99.90;;;;;;5083435;28;20038;-42
2023/05/23 03:21:26;;;;;;;8.40;5.90;;;15.00;99.90;;;;;;5082201;28;20039;-41
2023/05/23 03:23:52;;;;;;;9.13;6.43;;;15.00;99.90;;;;;;5082345;28;20020;-41
2023/05/23 03:26:18;;;;;;;9.07;5.75;;;15.00;99.90;;;;;;5081574;28;20066;-44
2023/05/23 03:28:43;;;;;;;8.07;5.00;;;15.00;99.90;;;;;;5079304;28;20040;-43
2023/05/23 03:31:09;;;;;;;10.20;5.43;;;15.00;99.90;;;;;;5082091;28;20024;-43
2023/05/23 03:33:34;;;;;;;7.35;5.18;;;15.00;99.90;;;;;;5081374;28;20018;-41
2023/05/23 03:36:00;;;;;;;6.43;5.03;;;15.00;99.90;;;;;;5081378;28;20442;-41
2023/05/23 03:38:26;;;;;;;7.68;5.45;;;15.00;99.90;;;;;;5081691;28;20476;-43
2023/05/23 03:40:52;;;;;;;9.50;5.90;;;15.00;99.90;;;;;;5082450;28;20023;-43
2023/05/23 03:43:18;;;;;;;8.25;4.95;;;15.00;99.90;;;;;;5081471;28;20032;-41
2023/05/23 03:45:44;;;;;;;10.43;6.20;;;15.00;99.90;;;;;;5082349;28;20486;-43
2023/05/23 03:48:10;;;;;;;6.38;4.57;;;15.10;99.90;;;;;;5082246;28;20475;-42
2023/05/23 03:50:35;;;;;;;8.60;4.88;;;15.10;99.90;;;;;;5081768;28;20478;-42
2023/05/23 03:53:01;;;;;;;7.65;5.15;;;15.10;99.90;;;;;;5081554;28;20028;-41
2023/05/23 03:55:26;;;;;;;7.72;5.38;;;15.20;99.90;;;;;;5081580;28;20070;-41
2023/05/23 03:57:52;;;;;;;9.10;5.15;;;15.20;99.90;;;;;;5082309;28;20435;-42
2023/05/23 04:00:18;;;;;;;6.03;4.50;;;15.20;99.90;;;;;;5082020;28;20020;-41
2023/05/23 04:02:45;;;;;;;5.47;4.70;;;15.20;99.90;;;;;;5081347;28;20542;-42
2023/05/23 04:05:11;;;;;;;10.15;4.82;;;15.30;99.90;;;;;;5082592;28;20066;-42
2023/05/23 04:07:37;;;;;;;9.75;5.28;;;15.30;99.90;;;;;;5081513;28;20101;-43
2023/05/23 04:10:03;;;;;;;8.45;5.35;;;15.40;99.90;;;;;;5082124;28;20469;-43
2023/05/23 04:12:31;;;;;;;7.35;5.10;;;15.40;99.90;;;;;;5082226;28;20103;-42
2023/05/23 04:14:57;;;;;;;6.15;5.00;;;15.40;99.90;;;;;;5082652;28;20020;-42
2023/05/23 04:17:23;;;;;;;7.50;5.72;;;15.40;99.90;;;;;;5081025;28;20028;-42
2023/05/23 04:19:50;;;;;;;8.40;5.03;;;15.40;99.90;;;;;;5082401;28;20380;-41
2023/05/23 04:22:15;;;;;;;7.65;5.57;;;15.40;99.90;;;;;;5082740;28;20592;-42
2023/05/23 04:24:41;;;;;;;6.95;5.10;;;15.40;99.90;;;;;;5081946;28;20444;-42
2023/05/23 04:27:07;;;;;;;7.40;4.85;;;15.40;99.90;;;;;;5082551;28;20031;-42
2023/05/23 04:29:34;;;;;;;10.05;5.65;;;15.40;99.90;;;;;;5078394;28;20020;-40
2023/05/23 04:32:00;;;;;;;10.07;6.05;;;15.40;99.90;;;;;;5081303;28;20032;-42
2023/05/23 04:34:26;;;;;;;11.80;7.22;;;15.30;99.90;;;;;;5080041;28;20032;-39
2023/05/23 04:36:54;;;;;;;10.15;6.55;;;15.30;99.90;;;;;;5080668;28;20027;-41
2023/05/23 04:39:20;;;;;;;9.60;6.53;;;15.30;99.90;;;;;;5079709;28;20028;-43
2023/05/23 04:41:45;;;;;;;16.08;8.20;;;15.20;99.90;;;;;;5081332;28;20517;-39
2023/05/23 04:44:13;;;;;;;13.73;7.03;;;15.20;99.90;;;;;;5080517;28;20115;-41
2023/05/23 04:46:40;;;;;;;12.27;7.68;;;15.10;99.90;;;;;;5080258;28;20028;-44
2023/05/23 04:49:07;;;;;;;16.85;6.50;;;15.10;99.90;;;;;;5081030;28;20054;-41
2023/05/23 04:51:33;;;;;;;13.13;7.03;;;15.20;99.90;;;;;;5081191;28;20032;-43
2023/05/23 04:53:59;;;;;;;13.13;7.05;;;15.20;99.90;;;;;;5080564;28;20079;-42
2023/05/23 04:56:27;;;;;;;13.20;6.43;;;15.20;99.90;;;;;;5080104;28;20102;-40
2023/05/23 04:58:53;;;;;;;15.30;6.63;;;15.20;99.90;;;;;;5081090;28;20241;-41
2023/05/23 05:01:18;;;;;;;14.73;7.40;;;15.10;99.90;;;;;;5081200;28;20028;-42
2023/05/23 05:03:44;;;;;;;17.75;8.00;;;15.10;99.90;;;;;;5081201;28;20028;-43
2023/05/23 05:06:13;;;;;;;13.63;6.50;;;15.00;99.90;;;;;;5080742;28;20027;-41
2023/05/23 05:08:39;;;;;;;12.05;6.35;;;15.00;99.90;;;;;;5080631;28;20480;-42
2023/05/23 05:11:08;;;;;;;13.80;7.05;;;15.00;99.90;;;;;;5081273;28;20026;-43
2023/05/23 05:13:34;;;;;;;14.23;7.60;;;15.00;99.90;;;;;;5080778;28;20120;-42
2023/05/23 05:15:59;;;;;;;14.57;7.07;;;14.90;99.90;;;;;;5081370;28;20020;-42
2023/05/23 05:18:26;;;;;;;14.07;6.82;;;14.80;99.90;;;;;;5081059;28;20111;-41
2023/05/23 05:20:51;;;;;;;9.15;5.25;;;14.80;99.90;;;;;;5080349;28;20715;-41
2023/05/23 05:23:17;;;;;;;10.70;5.70;;;14.80;99.90;;;;;;5081317;28;20024;-41
2023/05/23 05:25:42;;;;;;;12.13;5.72;;;14.80;99.90;;;;;;5080846;28;20597;-42
2023/05/23 05:28:08;;;;;;;14.45;5.82;;;14.80;99.90;;;;;;5078577;28;20043;-43
2023/05/23 05:30:34;;;;;;;12.98;5.72;;;14.90;99.90;;;;;;5080050;28;20031;-42
2023/05/23 05:33:03;;;;;;;13.18;6.30;;;14.80;99.90;;;;;;5080973;28;20028;-41
2023/05/23 05:35:32;;;;;;;11.80;5.60;;;14.70;99.90;;;;;;5079657;28;20024;-43
2023/05/23 05:37:59;;;;;;;10.57;5.82;;;14.60;99.90;;;;;;5081358;28;20032;-42
2023/05/23 05:40:24;;;;;;;14.88;5.30;;;14.60;99.90;;;;;;5078261;28;20028;-42
2023/05/23 05:42:50;;;;;;;12.05;5.60;;;14.60;99.90;;;;;;5078754;28;20059;-42
2023/05/23 05:45:16;;;;;;;10.63;5.00;;;14.50;99.90;;;;;;5078265;28;20406;-43
2023/05/23 05:47:43;;;;;;;13.55;5.72;;;14.50;99.90;;;;;;5079491;28;20395;-43
2023/05/23 05:50:09;;;;;;;10.60;4.55;;;14.40;99.90;;;;;;5079266;28;20131;-42
2023/05/23 05:52:38;;;;;;;9.23;4.68;;;14.40;99.90;;;;;;5082408;28;20062;-42
2023/05/23 05:55:13;;;;;;;9.95;5.22;;;14.40;99.90;;;;;;5083857;28;20030;-44
2023/05/23 05:57:39;;;;;;;14.90;5.40;;;14.40;99.90;;;;;;5083516;28;20036;-43
2023/05/23 06:00:14;;;;;;;12.32;5.15;;;14.30;99.90;;;;;;5084050;28;20162;-41
2023/05/23 06:02:41;;;;;;;10.32;4.88;;;14.20;99.90;;;;;;5079918;28;20028;-43
2023/05/23 06:05:11;;;;;;;9.63;3.90;;;14.20;99.90;;;;;;5083681;28;20027;-42
2023/05/23 06:07:37;;;;;;;8.75;4.03;;;14.20;99.90;;;;;;5083624;28;20533;-42
2023/05/23 06:10:03;;;;;;;8.95;4.95;;;14.20;99.90;;;;;;5083187;28;20024;-41
2023/05/23 06:12:28;;;;;;;10.80;4.47;;;14.30;99.90;;;;;;5083366;28;20479;-42
2023/05/23 06:14:54;;;;;;;9.77;4.70;;;14.30;99.90;;;;;;5084490;28;20035;-43
2023/05/23 06:17:20;;;;;;;8.27;4.15;;;14.30;99.90;;;;;;5083576;28;20025;-43
2023/05/23 06:19:45;;;;;;;12.95;4.57;;;14.30;99.90;;;;;;5083791;28;20024;-42
2023/05/23 06:22:14;;;;;;;10.13;4.70;;;14.40;99.90;;;;;;5083709;28;20016;-43
2023/05/23 06:24:39;;;;;;;9.63;5.30;;;14.30;99.90;;;;;;5081999;28;20058;-43
2023/05/23 06:27:05;;;;;;;7.85;4.07;;;14.30;99.90;;;;;;5083597;28;20596;-42
2023/05/23 06:29:30;;;;;;;7.30;4.05;;;14.20;99.90;;;;;;5083053;28;20028;-41
2023/05/23 06:31:56;;;;;;;9.45;4.40;;;14.20;99.90;;;;;;5082169;28;20015;-42
2023/05/23 06:34:22;;;;;;;7.45;3.90;;;14.20;99.90;;;;;;5083934;28;20028;-42
2023/05/23 06:36:48;;;;;;;7.20;3.75;;;14.20;99.90;;;;;;5084676;28;20364;-43
2023/05/23 06:39:14;;;;;;;8.75;4.30;;;14.30;99.90;;;;;;5078943;28;20082;-41
2023/05/23 06:41:40;;;;;;;9.43;4.28;;;14.30;99.90;;;;;;5079119;28;20134;-43
2023/05/23 06:44:05;;;;;;;6.05;3.85;;;14.30;99.90;;;;;;5083823;28;20019;-41
2023/05/23 06:46:31;;;;;;;6.47;3.58;;;14.30;99.90;;;;;;5082599;28;20031;-44
2023/05/23 06:48:57;;;;;;;7.72;3.80;;;14.30;99.90;;;;;;5083302;28;20097;-42
2023/05/23 06:51:22;;;;;;;5.28;3.83;;;14.40;99.90;;;;;;5080920;28;20430;-43
2023/05/23 06:53:48;;;;;;;10.60;4.43;;;14.40;99.90;;;;;;5082184;28;20043;-42
2023/05/23 06:56:13;;;;;;;9.02;4.45;;;14.40;99.90;;;;;;5069785;28;20070;-42
2023/05/23 06:58:40;;;;;;;12.30;4.47;;;14.50;99.90;;;;;;5081174;28;20040;-43
2023/05/23 07:01:05;;;;;;;7.45;3.92;;;14.60;99.90;;;;;;5083089;28;20027;-42
2023/05/23 07:03:34;;;;;;;6.18;3.85;;;14.60;99.90;;;;;;5083373;28;20028;-41
2023/05/23 07:05:59;;;;;;;9.10;4.38;;;14.70;99.90;;;;;;5082844;28;20031;-43
2023/05/23 07:08:25;;;;;;;11.13;4.82;;;14.80;99.90;;;;;;5082714;28;20032;-43
2023/05/23 07:10:50;;;;;;;10.20;4.80;;;14.90;99.90;;;;;;5083410;28;20028;-41
2023/05/23 07:13:16;;;;;;;9.88;5.05;;;14.90;99.90;;;;;;5082093;28;20039;-43
2023/05/23 07:15:44;;;;;;;10.35;4.45;;;15.00;99.90;;;;;;5082756;28;20027;-42
2023/05/23 07:18:10;;;;;;;9.95;4.97;;;15.20;99.90;;;;;;5082816;28;20020;-43
2023/05/23 07:20:39;;;;;;;8.50;4.82;;;15.20;99.90;;;;;;5082423;28;20020;-43
2023/05/23 07:23:04;;;;;;;8.45;4.82;;;15.30;99.90;;;;;;5083513;28;20030;-43
2023/05/23 07:25:30;;;;;;;10.05;4.35;;;15.40;99.90;;;;;;5083165;28;20532;-43
2023/05/23 07:27:55;;;;;;;9.35;4.55;;;15.40;99.90;;;;;;5083271;28;20043;-42
2023/05/23 07:30:21;;;;;;;9.68;5.00;;;15.50;99.90;;;;;;5082548;28;20090;-43
2023/05/23 07:32:47;;;;;;;11.00;4.45;;;15.40;99.90;;;;;;5082594;28;20623;-42
2023/05/23 07:35:14;;;;;;;7.20;4.50;;;15.40;99.90;;;;;;5081481;28;20049;-41
2023/05/23 07:37:40;;;;;;;7.32;4.03;;;15.40;99.90;;;;;;5082479;28;20034;-43
2023/05/23 07:40:09;;;;;;;7.32;4.28;;;15.40;99.90;;;;;;5082604;28;20027;-41
2023/05/23 07:42:34;;;;;;;12.63;5.07;;;15.50;99.90;;;;;;5081601;28;20493;-43
2023/05/23 07:45:00;;;;;;;7.25;4.70;;;15.50;99.90;;;;;;5082158;28;20141;-43
2023/05/23 07:47:26;;;;;;;10.10;4.65;;;15.50;99.90;;;;;;5082051;28;20059;-42
2023/05/23 07:49:52;;;;;;;7.05;4.00;;;15.50;99.90;;;;;;5082186;28;20478;-43
2023/05/23 07:52:18;;;;;;;9.25;4.20;;;15.60;99.90;;;;;;5082420;28;20028;-44
2023/05/23 07:54:43;;;;;;;7.93;4.10;;;15.70;99.90;;;;;;5081684;28;20426;-42
2023/05/23 07:57:09;;;;;;;9.60;4.55;;;15.70;99.90;;;;;;5082225;28;20043;-43
2023/05/23 07:59:37;;;;;;;6.78;3.45;;;15.70;99.90;;;;;;5080469;28;20095;-42
2023/05/23 08:02:03;;;;;;;7.97;4.00;;;15.60;99.90;;;;;;5069058;28;20020;-42
2023/05/23 08:04:29;;;;;;;9.45;3.83;;;15.60;99.90;;;;;;5080597;28;20020;-33
2023/05/23 08:06:55;;;;;;;8.48;4.78;;;15.50;99.90;;;;;;5081120;28;20129;-32
2023/05/23 08:09:22;;;;;;;8.75;4.05;;;15.50;99.90;;;;;;5080495;28;20116;-43
2023/05/23 08:11:47;;;;;;;8.68;3.88;;;15.40;99.90;;;;;;5082752;28;20022;-42
2023/05/23 08:14:13;;;;;;;8.68;3.70;;;15.30;99.90;;;;;;5081258;28;20775;-43
2023/05/23 08:16:38;;;;;;;9.88;3.30;;;15.30;99.90;;;;;;5080951;28;20024;-40
2023/05/23 08:19:04;;;;;;;9.90;3.42;;;15.20;99.90;;;;;;5082123;28;20020;-41
2023/05/23 08:21:30;;;;;;;8.75;3.15;;;15.30;99.90;;;;;;5081095;28;20038;-45
2023/05/23 08:23:56;;;;;;;6.90;2.63;;;15.50;99.90;;;;;;5081241;28;20113;-43
2023/05/23 08:26:22;;;;;;;7.93;2.58;;;15.60;99.90;;;;;;5080786;28;20103;-43
2023/05/23 08:28:47;;;;;;;4.25;2.13;;;15.60;99.90;;;;;;5081390;28;20071;-43
2023/05/23 08:31:13;;;;;;;9.02;3.10;;;15.60;99.90;;;;;;5081389;28;20036;-42
2023/05/23 08:33:39;;;;;;;9.68;2.47;;;15.60;99.90;;;;;;5075297;28;20032;-43
2023/05/23 08:36:04;;;;;;;4.20;2.20;;;15.50;99.90;;;;;;5079643;28;20020;-42
2023/05/23 08:38:30;;;;;;;7.47;2.78;;;15.40;99.90;;;;;;5079220;28;20191;-42
2023/05/23 08:41:00;;;;;;;7.63;2.63;;;15.40;99.90;;;;;;5080389;28;20016;-43
2023/05/23 08:43:26;;;;;;;5.90;2.33;;;15.40;99.90;;;;;;5078838;28;20897;-42
2023/05/23 08:45:52;;;;;;;6.95;2.35;;;15.50;99.90;;;;;;5079208;28;20028;-42
2023/05/23 08:48:22;;;;;;;7.15;2.25;;;15.50;99.90;;;;;;5079756;28;20146;-43
2023/05/23 08:50:51;;;;;;;5.57;2.22;;;15.60;99.90;;;;;;5079568;28;20668;-43
2023/05/23 08:53:19;;;;;;;6.38;2.28;;;15.70;99.90;;;;;;5079046;28;20036;-43
2023/05/23 08:55:50;;;;;;;5.90;2.10;;;15.90;99.90;;;;;;5079994;28;20047;-41
2023/05/23 08:58:19;;;;;;;17.70;4.25;;;16.00;99.90;;;;;;5080256;28;20040;-42
2023/05/23 09:00:46;;;;;;;10.65;3.08;;;16.00;99.90;;;;;;5096094;28;20028;-42
2023/05/23 09:03:14;;;;;;;7.45;2.60;;;15.80;99.90;;;;;;5082019;28;20028;-41
2023/05/23 09:05:41;;;;;;;9.90;2.40;;;15.70;99.90;;;;;;5079920;28;20024;-43
2023/05/23 09:08:06;;;;;;;5.68;2.25;;;15.80;99.90;;;;;;5078448;28;20062;-42
2023/05/23 09:10:32;;;;;;;7.95;2.33;;;16.00;99.90;;;;;;5080333;28;20028;-43
2023/05/23 09:12:58;;;;;;;6.25;2.08;;;16.10;99.90;;;;;;5079922;28;20028;-41
2023/05/23 09:15:26;;;;;;;6.80;2.10;;;16.20;99.90;;;;;;5079738;28;20060;-42
2023/05/23 09:17:51;;;;;;;7.03;1.80;;;16.30;99.90;;;;;;5080174;28;20035;-44
2023/05/23 09:20:17;;;;;;;6.28;1.80;;;16.40;99.90;;;;;;5080575;28;20024;-42
2023/05/23 09:22:49;;;;;;;9.60;3.15;;;16.60;99.90;;;;;;5080469;28;20078;-42
2023/05/23 09:25:15;;;;;;;;;;;16.60;99.90;;;;;;5082054;28;20020;-43
2023/05/23 09:27:44;;;;;;;6.82;2.50;;;16.40;99.90;;;;;;5083371;28;19961;-43
2023/05/23 09:30:11;;;;;;;5.95;2.20;;;16.40;99.90;;;;;;5081308;28;20449;-43
2023/05/23 09:32:36;;;;;;;6.75;2.50;;;16.40;99.90;;;;;;5082447;28;20095;-42
2023/05/23 09:35:06;;;;;;;6.22;2.33;;;16.30;99.90;;;;;;5080784;28;20597;-43
2023/05/23 09:37:38;;;;;;;9.05;2.38;;;16.30;99.90;;;;;;5082412;28;20020;-43
2023/05/23 09:40:14;;;;;;;13.15;3.30;;;16.20;99.90;;;;;;5082469;28;20387;-43
2023/05/23 09:42:47;;;;;;;10.73;2.78;;;16.20;99.90;;;;;;5082208;28;20020;-43
2023/05/23 09:45:14;;;;;;;5.90;2.30;;;16.00;99.90;;;;;;5083196;28;20023;-43
2023/05/23 09:47:50;;;;;;;8.38;2.30;;;16.00;99.90;;;;;;5081405;28;20103;-43
2023/05/23 09:50:16;;;;;;;10.20;2.50;;;15.90;99.90;;;;;;5082203;28;20101;-41
2023/05/23 09:52:41;;;;;;;9.07;2.40;;;15.90;99.90;;;;;;5083452;28;20040;-42
2023/05/23 09:55:07;;;;;;;10.60;2.97;;;15.90;99.90;;;;;;5083491;28;20085;-42
2023/05/23 09:57:46;;;;;;;8.23;2.40;;;15.90;99.90;;;;;;5083675;28;20043;-42
2023/05/23 10:00:12;;;;;;;5.38;2.47;;;15.90;99.90;;;;;;5084177;28;20063;-42
2023/05/23 10:02:57;;;;;;;7.60;2.33;;;16.00;99.90;;;;;;5083737;28;20107;-44
2023/05/23 10:05:45;;;;;;;7.03;2.78;;;16.10;99.90;;;;;;5083812;28;20028;-43
2023/05/23 10:08:37;;;;;;;8.52;2.55;;;16.20;99.90;;;;;;5084096;28;20039;-43
2023/05/23 10:11:15;;;;;;;15.38;3.65;;;16.30;99.90;;;;;;5081418;28;20103;-42
2023/05/23 10:13:47;;;;;;;8.60;2.78;;;16.40;99.30;;;;;;5084053;28;20032;-43
2023/05/23 10:16:32;;;;;;;9.40;2.97;;;16.30;99.70;;;;;;5082024;28;20039;-42
2023/05/23 10:19:02;;;;;;;10.77;3.17;;;16.40;99.70;;;;;;5082518;28;20270;-43
2023/05/23 10:21:37;;;;;;;9.63;2.80;;;16.40;99.20;;;;;;5082096;28;20039;-42
2023/05/23 10:24:03;;;;;;;6.40;2.53;;;16.40;99.10;;;;;;5082326;28;20447;-43
2023/05/23 10:26:30;;;;;;;5.35;2.42;;;16.40;99.60;;;;;;5083089;28;20143;-43
2023/05/23 10:28:56;;;;;;;9.45;2.30;;;16.40;99.20;;;;;;5083883;28;20433;-41
2023/05/23 10:31:23;;;;;;;5.10;2.30;;;16.50;99.10;;;;;;5082084;28;20782;-43
2023/05/23 10:33:55;;;;;;;8.50;2.75;;;16.60;98.70;;;;;;5083999;28;20166;-41
2023/05/23 10:36:52;;;;;;;5.43;1.90;;;16.70;98.30;;;;;;5082393;28;20462;-43
2023/05/23 10:39:58;;;;;;;8.20;2.67;;;16.80;98.10;;;;;;5072501;28;20305;-42
2023/05/23 10:42:37;;;;;;;6.47;2.13;;;16.90;98.10;;;;;;5079348;28;20047;-40
2023/05/23 10:45:20;;;;;;;5.93;2.42;;;17.10;98.10;;;;;;5081778;28;20613;-43
2023/05/23 10:47:53;;;;;;;6.68;2.10;;;17.00;98.20;;;;;;5073652;28;20028;-42
2023/05/23 10:50:39;;;;;;;8.10;2.92;;;17.10;97.90;;;;;;5082489;28;20032;-43
2023/05/23 10:53:05;;;;;;;7.72;2.72;;;17.10;98.00;;;;;;5076258;28;20039;-43
2023/05/23 10:55:35;;;;;;;5.22;2.03;;;17.10;98.00;;;;;;5079524;28;20097;-43
2023/05/23 10:58:16;;;;;;;7.60;2.47;;;17.20;98.10;;;;;;5082617;28;20032;-42
2023/05/23 11:01:04;;;;;;;7.00;2.72;;;17.30;97.50;;;;;;5082075;28;20024;-43
2023/05/23 11:03:34;;;;;;;5.90;2.42;;;17.40;96.80;;;;;;5082506;28;20032;-43
2023/05/23 11:06:01;;;;;;;5.22;2.35;;;17.40;96.80;;;;;;5082367;28;20754;-42
2023/05/23 11:08:41;;;;;;;5.68;2.10;;;17.50;96.50;;;;;;5080848;28;20218;-42
2023/05/23 11:11:07;;;;;;;6.97;2.40;;;17.50;96.80;;;;;;5082638;28;20095;-43
2023/05/23 11:13:55;;;;;;;4.88;2.03;;;17.50;96.50;;;;;;5082812;28;20024;-43
2023/05/23 11:16:31;;;;;;;7.95;2.30;;;17.50;96.20;;;;;;5082993;28;20031;-42
2023/05/23 11:19:19;;;;;;;9.27;2.63;;;17.60;95.80;;;;;;5082363;28;20034;-43
2023/05/23 11:21:48;;;;;;;7.97;2.20;;;17.70;95.50;;;;;;5082789;28;20024;-43
2023/05/23 11:24:15;;;;;;;8.82;2.55;;;17.80;95.70;;;;;;5082953;28;20023;-42
2023/05/23 11:26:58;;;;;;;7.43;2.63;;;17.90;95.60;;;;;;5080135;28;20027;-42
2023/05/23 11:29:25;;;;;;;8.02;2.30;;;17.90;94.80;;;;;;5081544;28;20078;-42
2023/05/23 11:31:50;;;;;;;6.40;2.28;;;17.70;94.60;;;;;;5082577;28;20082;-43
2023/05/23 11:34:17;;;;;;;5.03;1.95;;;17.60;94.90;;;;;;5081513;28;20126;-42
2023/05/23 11:36:43;;;;;;;6.03;1.98;;;17.60;95.20;;;;;;5082003;28;20031;-43
2023/05/23 11:39:09;;;;;;;6.50;2.17;;;17.70;95.10;;;;;;5082082;28;20843;-42
2023/05/23 11:41:38;;;;;;;7.22;2.10;;;17.90;94.50;;;;;;5079581;28;20081;-42
2023/05/23 11:44:13;;;;;;;5.90;2.38;;;17.80;94.30;;;;;;5078094;28;20409;-42
2023/05/23 11:46:39;;;;;;;5.28;1.73;;;17.80;94.30;;;;;;5079810;28;20016;-42
2023/05/23 11:49:11;;;;;;;5.30;2.20;;;17.80;94.20;;;;;;5077748;28;20487;-42
2023/05/23 11:51:37;;;;;;;9.75;3.17;;;17.90;94.60;;;;;;5080528;28;20107;-42
2023/05/23 11:54:02;;;;;;;7.10;2.60;;;18.00;94.40;;;;;;5079814;28;20084;-42
2023/05/23 11:56:28;;;;;;;5.57;2.40;;;17.90;94.20;;;;;;5080210;28;20051;-41
2023/05/23 11:58:56;;;;;;;5.60;2.22;;;17.90;94.20;;;;;;5081411;28;20028;-42
2023/05/23 12:01:30;;;;;;;6.10;2.53;;;17.90;94.40;;;;;;5061004;28;20040;-42
2023/05/23 12:03:56;;;;;;;3.42;1.85;;;17.80;94.30;;;;;;5077565;28;20031;-42
2023/05/23 12:06:23;;;;;;;6.88;1.80;;;17.90;94.00;;;;;;5081773;28;20032;-40
2023/05/23 12:08:51;;;;;;;5.97;2.03;;;17.90;93.50;;;;;;5081053;28;20036;-42
2023/05/23 12:11:16;;;;;;;4.53;1.88;;;17.90;93.10;;;;;;5082254;28;20115;-42
2023/05/23 12:13:43;;;;;;;5.47;1.98;;;17.90;92.60;;;;;;5080611;28;20151;-43
2023/05/23 12:16:16;;;;;;;7.50;1.90;;;17.90;92.40;;;;;;5081656;28;20028;-42
2023/05/23 12:18:42;;;;;;;6.00;2.10;;;17.80;92.70;;;;;;5081980;28;20024;-41
2023/05/23 12:21:08;;;;;;;7.22;2.45;;;17.80;92.60;;;;;;5082738;28;20111;-42
2023/05/23 12:23:34;;;;;;;7.07;2.22;;;17.80;92.30;;;;;;5080649;28;20090;-42
2023/05/23 12:26:04;;;;;;;4.07;2.08;;;17.80;92.20;;;;;;5082218;28;20538;-42
2023/05/23 12:28:41;;;;;;;4.55;2.15;;;17.70;91.90;;;;;;5079857;28;20064;-42
2023/05/23 12:31:09;;;;;;;5.18;2.08;;;17.70;91.40;;;;;;5076786;28;20462;-42
2023/05/23 12:33:38;;;;;;;4.38;1.80;;;17.80;91.70;;;;;;5077555;28;20042;-44
2023/05/23 12:36:07;;;;;;;5.65;2.03;;;17.90;91.90;;;;;;5078716;28;20027;-43
2023/05/23 12:38:39;;;;;;;5.78;1.70;;;17.90;91.90;;;;;;5066192;28;20029;-41
2023/05/23 12:41:14;;;;;;;4.13;1.67;;;18.00;92.20;;;;;;5073214;28;20377;-42
2023/05/23 12:43:54;;;;;;;4.10;1.80;;;18.10;92.00;;;;;;5071678;28;20395;-42
2023/05/23 12:46:21;;;;;;;6.30;1.90;;;18.20;91.20;;;;;;5075760;28;20032;-42
2023/05/23 12:48:47;;;;;;;4.38;1.90;;;18.20;91.00;;;;;;5074795;28;20039;-44